sensor_id;sensor_type;location;lat;lon;timestamp;temperature;humidity
41471;DHT22;27211;51.220;5.308;2022-09-16T00:00:21;13.20;99.90
41471;DHT22;27211;51.220;5.308;2022-09-16T00:02:47;13.30;99.90
41471;DHT22;27211;51.220;5.308;2022-09-16T00:05:13;13.40;99.90
41471;DHT22;27211;51.220;5.308;2022-09-16T00:07:39;13.20;99.90
41471;DHT22;27211;51.220;5.308;2022-09-16T00:10:06;13.10;99.90
41471;DHT22;27211;51.220;5.308;2022-09-16T00:12:32;12.90;99.90
41471;DHT22;27211;51.220;5.308;2022-09-16T00:14:58;13.00;99.90
41471;DHT22;27211;51.220;5.308;2022-09-16T00:17:23;13.00;99.90
41471;DHT22;27211;51.220;5.308;2022-09-16T00:19:49;13.10;99.90
41471;DHT22;27211;51.220;5.308;2022-09-16T00:22:16;13.20;99.90
41471;DHT22;27211;51.220;5.308;2022-09-16T00:24:42;13.20;99.90
41471;DHT22;27211;51.220;5.308;2022-09-16T00:27:08;13.30;99.90
41471;DHT22;27211;51.220;5.308;2022-09-16T00:29:34;13.20;99.90
41471;DHT22;27211;51.220;5.308;2022-09-16T00:32:00;13.30;99.90
41471;DHT22;27211;51.220;5.308;2022-09-16T00:34:26;13.40;99.90
41471;DHT22;27211;51.220;5.308;2022-09-16T00:36:53;13.60;99.90
41471;DHT22;27211;51.220;5.308;2022-09-16T00:39:18;13.50;99.90
41471;DHT22;27211;51.220;5.308;2022-09-16T00:41:44;13.40;99.90
41471;DHT22;27211;51.220;5.308;2022-09-16T00:47:17;13.40;99.90
41471;DHT22;27211;51.220;5.308;2022-09-16T00:49:44;13.40;99.90
41471;DHT22;27211;51.220;5.308;2022-09-16T00:52:11;13.30;99.90
41471;DHT22;27211;51.220;5.308;2022-09-16T00:54:38;13.40;99.90
41471;DHT22;27211;51.220;5.308;2022-09-16T00:57:06;13.40;99.90
41471;DHT22;27211;51.220;5.308;2022-09-16T00:59:37;13.50;99.90
41471;DHT22;27211;51.220;5.308;2022-09-16T01:02:07;13.40;99.90
41471;DHT22;27211;51.220;5.308;2022-09-16T01:04:44;13.30;99.90
41471;DHT22;27211;51.220;5.308;2022-09-16T01:07:12;13.10;99.90
41471;DHT22;27211;51.220;5.308;2022-09-16T01:09:38;13.10;99.90
41471;DHT22;27211;51.220;5.308;2022-09-16T01:12:04;13.10;99.90
41471;DHT22;27211;51.220;5.308;2022-09-16T01:14:31;13.00;99.90
41471;DHT22;27211;51.220;5.308;2022-09-16T01:20:43;12.80;99.90
41471;DHT22;27211;51.220;5.308;2022-09-16T01:29:08;12.70;99.90
41471;DHT22;27211;51.220;5.308;2022-09-16T01:31:56;12.70;99.90
41471;DHT22;27211;51.220;5.308;2022-09-16T01:34:46;12.80;99.90
41471;DHT22;27211;51.220;5.308;2022-09-16T01:40:13;12.90;99.90
41471;DHT22;27211;51.220;5.308;2022-09-16T01:43:01;12.80;99.90
41471;DHT22;27211;51.220;5.308;2022-09-16T01:45:38;12.70;99.90
41471;DHT22;27211;51.220;5.308;2022-09-16T01:50:45;12.70;99.90
41471;DHT22;27211;51.220;5.308;2022-09-16T01:53:20;12.60;99.90
41471;DHT22;27211;51.220;5.308;2022-09-16T01:55:51;12.70;99.90
41471;DHT22;27211;51.220;5.308;2022-09-16T01:58:36;12.70;99.90
41471;DHT22;27211;51.220;5.308;2022-09-16T02:01:08;12.70;99.90
41471;DHT22;27211;51.220;5.308;2022-09-16T02:03:38;12.70;99.90
41471;DHT22;27211;51.220;5.308;2022-09-16T02:06:08;12.80;99.90
41471;DHT22;27211;51.220;5.308;2022-09-16T02:08:53;12.80;99.90
41471;DHT22;27211;51.220;5.308;2022-09-16T02:11:22;12.80;99.90
41471;DHT22;27211;51.220;5.308;2022-09-16T02:14:16;12.80;99.90
41471;DHT22;27211;51.220;5.308;2022-09-16T02:16:52;12.80;99.90
41471;DHT22;27211;51.220;5.308;2022-09-16T02:19:44;12.80;99.90
41471;DHT22;27211;51.220;5.308;2022-09-16T02:22:17;12.60;99.90
41471;DHT22;27211;51.220;5.308;2022-09-16T02:24:47;12.70;99.90
41471;DHT22;27211;51.220;5.308;2022-09-16T02:27:15;12.60;99.90
41471;DHT22;27211;51.220;5.308;2022-09-16T02:29:53;12.70;99.90
41471;DHT22;27211;51.220;5.308;2022-09-16T02:32:22;12.80;99.90
41471;DHT22;27211;51.220;5.308;2022-09-16T02:34:50;12.70;99.90
41471;DHT22;27211;51.220;5.308;2022-09-16T02:37:30;12.70;99.90
41471;DHT22;27211;51.220;5.308;2022-09-16T02:40:00;12.60;99.90
41471;DHT22;27211;51.220;5.308;2022-09-16T02:42:29;12.60;99.90
41471;DHT22;27211;51.220;5.308;2022-09-16T02:44:56;12.70;99.90
41471;DHT22;27211;51.220;5.308;2022-09-16T02:50:20;12.70;99.90
41471;DHT22;27211;51.220;5.308;2022-09-16T02:52:57;12.70;99.90
41471;DHT22;27211;51.220;5.308;2022-09-16T02:58:21;12.90;99.90
41471;DHT22;27211;51.220;5.308;2022-09-16T03:00:50;12.90;99.90
41471;DHT22;27211;51.220;5.308;2022-09-16T03:03:17;13.00;99.90
41471;DHT22;27211;51.220;5.308;2022-09-16T03:08:33;13.00;99.90
41471;DHT22;27211;51.220;5.308;2022-09-16T03:11:27;13.10;99.90
41471;DHT22;27211;51.220;5.308;2022-09-16T03:14:43;13.30;99.90
41471;DHT22;27211;51.220;5.308;2022-09-16T03:20:06;13.30;99.90
41471;DHT22;27211;51.220;5.308;2022-09-16T03:25:29;13.30;99.90
41471;DHT22;27211;51.220;5.308;2022-09-16T03:28:11;13.00;99.90
41471;DHT22;27211;51.220;5.308;2022-09-16T03:30:50;13.00;99.90
41471;DHT22;27211;51.220;5.308;2022-09-16T03:33:34;13.10;99.90
41471;DHT22;27211;51.220;5.308;2022-09-16T03:36:05;13.10;99.90
41471;DHT22;27211;51.220;5.308;2022-09-16T03:38:34;13.40;99.90
41471;DHT22;27211;51.220;5.308;2022-09-16T03:41:06;13.20;99.90
41471;DHT22;27211;51.220;5.308;2022-09-16T03:43:32;13.10;99.90
41471;DHT22;27211;51.220;5.308;2022-09-16T03:45:58;13.00;99.90
41471;DHT22;27211;51.220;5.308;2022-09-16T03:48:24;13.00;99.90
41471;DHT22;27211;51.220;5.308;2022-09-16T03:50:50;13.00;99.90
41471;DHT22;27211;51.220;5.308;2022-09-16T03:53:16;13.20;99.90
41471;DHT22;27211;51.220;5.308;2022-09-16T03:55:42;13.00;99.90
41471;DHT22;27211;51.220;5.308;2022-09-16T03:58:07;13.10;99.90
41471;DHT22;27211;51.220;5.308;2022-09-16T04:00:33;13.00;99.90
41471;DHT22;27211;51.220;5.308;2022-09-16T04:02:59;13.00;99.90
41471;DHT22;27211;51.220;5.308;2022-09-16T04:05:25;12.80;99.90
41471;DHT22;27211;51.220;5.308;2022-09-16T04:07:52;12.90;99.90
41471;DHT22;27211;51.220;5.308;2022-09-16T04:10:21;13.10;99.90
41471;DHT22;27211;51.220;5.308;2022-09-16T04:12:47;13.00;99.90
41471;DHT22;27211;51.220;5.308;2022-09-16T04:15:13;13.10;99.90
41471;DHT22;27211;51.220;5.308;2022-09-16T04:17:39;13.00;99.90
41471;DHT22;27211;51.220;5.308;2022-09-16T04:20:05;12.90;99.90
41471;DHT22;27211;51.220;5.308;2022-09-16T04:22:32;12.90;99.90
41471;DHT22;27211;51.220;5.308;2022-09-16T04:24:58;12.90;99.90
41471;DHT22;27211;51.220;5.308;2022-09-16T04:27:24;12.90;99.90
41471;DHT22;27211;51.220;5.308;2022-09-16T04:29:50;13.00;99.90
41471;DHT22;27211;51.220;5.308;2022-09-16T04:32:16;13.10;99.90
41471;DHT22;27211;51.220;5.308;2022-09-16T04:34:42;13.10;99.90
41471;DHT22;27211;51.220;5.308;2022-09-16T04:37:07;13.20;99.90
41471;DHT22;27211;51.220;5.308;2022-09-16T04:39:33;13.20;99.90
41471;DHT22;27211;51.220;5.308;2022-09-16T04:41:59;13.10;99.90
41471;DHT22;27211;51.220;5.308;2022-09-16T04:44:25;13.20;99.90
41471;DHT22;27211;51.220;5.308;2022-09-16T04:46:51;13.20;99.90
41471;DHT22;27211;51.220;5.308;2022-09-16T04:49:17;13.20;99.90
41471;DHT22;27211;51.220;5.308;2022-09-16T04:51:43;13.20;99.90
41471;DHT22;27211;51.220;5.308;2022-09-16T04:54:09;13.30;99.90
41471;DHT22;27211;51.220;5.308;2022-09-16T04:56:36;13.40;99.90
41471;DHT22;27211;51.220;5.308;2022-09-16T04:59:04;13.40;99.90
41471;DHT22;27211;51.220;5.308;2022-09-16T05:01:32;13.30;99.90
41471;DHT22;27211;51.220;5.308;2022-09-16T05:04:00;13.40;99.90
41471;DHT22;27211;51.220;5.308;2022-09-16T05:06:32;13.50;99.90
41471;DHT22;27211;51.220;5.308;2022-09-16T05:08:58;13.30;99.90
41471;DHT22;27211;51.220;5.308;2022-09-16T05:11:30;13.40;99.90
41471;DHT22;27211;51.220;5.308;2022-09-16T05:14:00;13.40;99.90
41471;DHT22;27211;51.220;5.308;2022-09-16T05:16:26;13.40;99.90
41471;DHT22;27211;51.220;5.308;2022-09-16T05:18:54;13.40;99.90
41471;DHT22;27211;51.220;5.308;2022-09-16T05:21:23;13.40;99.90
41471;DHT22;27211;51.220;5.308;2022-09-16T05:23:49;13.40;99.90
41471;DHT22;27211;51.220;5.308;2022-09-16T05:26:21;13.30;99.90
41471;DHT22;27211;51.220;5.308;2022-09-16T05:28:48;13.40;99.90
41471;DHT22;27211;51.220;5.308;2022-09-16T05:33:53;13.10;99.90
41471;DHT22;27211;51.220;5.308;2022-09-16T05:36:20;13.00;99.90
41471;DHT22;27211;51.220;5.308;2022-09-16T05:38:46;13.00;99.90
41471;DHT22;27211;51.220;5.308;2022-09-16T05:41:12;13.10;99.90
41471;DHT22;27211;51.220;5.308;2022-09-16T05:43:38;13.20;99.90
41471;DHT22;27211;51.220;5.308;2022-09-16T05:46:05;13.20;99.90
41471;DHT22;27211;51.220;5.308;2022-09-16T05:48:32;13.20;99.90
41471;DHT22;27211;51.220;5.308;2022-09-16T05:50:59;13.10;99.90
41471;DHT22;27211;51.220;5.308;2022-09-16T05:53:27;13.10;99.90
41471;DHT22;27211;51.220;5.308;2022-09-16T05:55:58;13.20;99.90
41471;DHT22;27211;51.220;5.308;2022-09-16T05:58:26;13.20;99.90
41471;DHT22;27211;51.220;5.308;2022-09-16T06:01:01;13.30;99.90
41471;DHT22;27211;51.220;5.308;2022-09-16T06:03:28;13.30;99.90
41471;DHT22;27211;51.220;5.308;2022-09-16T06:06:07;13.50;99.90
41471;DHT22;27211;51.220;5.308;2022-09-16T06:08:36;13.30;99.90
41471;DHT22;27211;51.220;5.308;2022-09-16T06:11:07;13.40;99.90
41471;DHT22;27211;51.220;5.308;2022-09-16T06:13:33;13.40;99.90
41471;DHT22;27211;51.220;5.308;2022-09-16T06:16:00;13.50;99.90
